Time;durP1;ratioP1;P1;durP2;ratioP2;P2;SDS_P1;SDS_P2;PMS_P1;PMS_P2;Temp;Humidity;BMP_temperature;BMP_pressure;BME280_temperature;BME280_humidity;BME280_pressure;Samples;Min_cycle;Max_cycle;Signal;HPM_P1;HPM_P2
2021/05/25 00:01:47;;;;;;;8.83;3.98;;;;;;;13.94;70.15;100456.55;1563786;91;21003;-77
2021/05/25 00:04:13;;;;;;;3.90;2.90;;;;;;;13.98;70.26;100462.55;1564725;91;21588;-74
2021/05/25 00:06:40;;;;;;;6.25;2.77;;;;;;;14.01;70.05;100460.39;1591940;89;21683;-74
2021/05/25 00:09:06;;;;;;;3.60;2.72;;;;;;;14.02;69.69;100464.20;1579831;90;21129;-75
2021/05/25 00:11:32;;;;;;;2.35;2.15;;;;;;;14.05;69.39;100463.72;1573247;90;21678;-76
2021/05/25 00:14:00;;;;;;;3.08;2.22;;;;;;;14.08;69.14;100467.79;1555974;91;21094;-73
2021/05/25 00:16:26;;;;;;;5.28;1.82;;;;;;;14.10;68.76;100461.04;1576216;89;21431;-73
2021/05/25 00:18:53;;;;;;;2.52;1.87;;;;;;;14.16;68.17;100465.97;1588126;90;21079;-72
2021/05/25 00:21:20;;;;;;;5.92;2.35;;;;;;;14.20;67.96;100471.97;1580539;89;21087;-75
2021/05/25 00:23:46;;;;;;;2.15;1.95;;;;;;;14.25;67.93;100468.50;1628689;87;21066;-74
2021/05/25 00:26:14;;;;;;;2.60;2.40;;;;;;;14.28;67.70;100466.12;1586675;89;22383;-75
2021/05/25 00:28:41;;;;;;;7.60;3.42;;;;;;;14.31;67.79;100467.49;1566463;89;21887;-72
2021/05/25 00:31:08;;;;;;;6.28;3.12;;;;;;;14.27;67.81;100466.38;1602811;89;21637;-71
2021/05/25 00:33:34;;;;;;;4.42;2.85;;;;;;;14.23;68.26;100465.25;1618848;88;21019;-72
2021/05/25 00:36:01;;;;;;;4.72;2.80;;;;;;;14.11;69.05;100459.97;1609597;87;21023;-75
2021/05/25 00:38:28;;;;;;;4.03;1.87;;;;;;;13.89;69.88;100464.07;1596318;88;21579;-70
2021/05/25 00:40:54;;;;;;;2.72;2.30;;;;;;;13.74;70.44;100458.47;1596783;89;21034;-72
2021/05/25 00:43:22;;;;;;;5.55;2.25;;;;;;;13.74;69.66;100461.17;1596606;89;21581;-70
2021/05/25 00:45:48;;;;;;;3.72;1.85;;;;;;;13.83;69.17;100458.84;1628716;87;21022;-69
2021/05/25 00:48:14;;;;;;;3.10;1.85;;;;;;;13.90;68.46;100465.71;1603550;88;21036;-75
2021/05/25 00:50:41;;;;;;;2.42;1.70;;;;;;;14.00;67.48;100458.25;1665278;86;21066;-69
2021/05/25 00:53:07;;;;;;;4.35;3.05;;;;;;;14.08;66.73;100462.38;1637667;87;21117;-70
2021/05/25 00:55:37;;;;;;;3.77;3.17;;;;;;;14.14;67.08;100466.78;1610747;88;21600;-68
2021/05/25 00:58:06;;;;;;;5.37;3.90;;;;;;;14.16;66.93;100467.33;1617696;88;21510;-68
2021/05/25 01:00:39;;;;;;;3.87;2.17;;;;;;;14.15;67.46;100474.63;1617525;88;21298;-69
2021/05/25 01:03:06;;;;;;;3.80;2.60;;;;;;;14.10;67.15;100468.37;1617791;88;21097;-68
2021/05/25 01:05:33;;;;;;;4.40;2.87;;;;;;;14.09;67.14;100472.14;1616959;87;22069;-70
2021/05/25 01:07:59;;;;;;;6.92;2.00;;;;;;;14.08;67.29;100474.55;1638785;87;21030;-69
2021/05/25 01:10:36;;;;;;;4.20;2.33;;;;;;;14.07;66.96;100477.79;1616605;85;21675;-68
2021/05/25 01:13:07;;;;;;;3.02;2.40;;;;;;;14.11;66.76;100483.50;1617360;88;21140;-69
2021/05/25 01:15:32;;;;;;;2.70;2.33;;;;;;;14.13;66.63;100482.73;1616649;87;21208;-67
2021/05/25 01:18:01;;;;;;;2.72;2.15;;;;;;;14.15;66.43;100484.09;1615485;87;21023;-69
2021/05/25 01:20:30;;;;;;;4.35;2.80;;;;;;;14.18;66.14;100493.08;1615136;88;21142;-69
2021/05/25 01:22:56;;;;;;;7.62;3.10;;;;;;;14.21;65.95;100493.09;1615126;88;20978;-68
2021/05/25 01:25:24;;;;;;;6.42;3.70;;;;;;;14.24;65.76;100493.42;1628038;87;21024;-68
2021/05/25 01:27:53;;;;;;;3.60;2.40;;;;;;;14.28;65.72;100497.78;1612123;88;21054;-69
2021/05/25 01:30:22;;;;;;;6.28;3.27;;;;;;;14.31;65.80;100494.55;1617549;88;21598;-68
2021/05/25 01:32:49;;;;;;;3.98;3.47;;;;;;;14.33;66.33;100496.48;1614812;88;21013;-69
2021/05/25 01:35:15;;;;;;;4.53;3.72;;;;;;;14.33;66.51;100497.30;1582536;89;21104;-68
2021/05/25 01:37:41;;;;;;;3.80;2.85;;;;;;;14.33;66.48;100495.95;1598364;88;21067;-69
2021/05/25 01:40:10;;;;;;;5.60;3.17;;;;;;;14.34;66.29;100494.85;1601363;89;21049;-69
2021/05/25 01:42:38;;;;;;;5.03;2.15;;;;;;;14.35;66.04;100493.79;1595827;89;21128;-70
2021/05/25 01:45:07;;;;;;;3.25;2.05;;;;;;;14.37;65.80;100488.98;1553872;89;21037;-69
2021/05/25 01:47:34;;;;;;;5.15;2.45;;;;;;;14.38;65.48;100483.86;1559148;89;21053;-71
2021/05/25 01:50:14;;;;;;;2.67;2.02;;;;;;;14.40;65.19;100484.93;1601153;88;20985;-69
2021/05/25 01:53:03;;;;;;;5.30;2.72;;;;;;;14.41;65.36;100493.34;1595902;89;21542;-68
2021/05/25 01:55:48;;;;;;;4.50;2.12;;;;;;;14.35;65.59;100484.84;1575872;90;21138;-70
2021/05/25 01:58:27;;;;;;;2.33;1.95;;;;;;;14.32;65.29;100484.02;1586280;89;22355;-69
2021/05/25 02:01:00;;;;;;;3.22;1.67;;;;;;;14.35;64.74;100485.67;1579585;89;21534;-69
2021/05/25 02:03:26;;;;;;;2.72;1.98;;;;;;;14.36;64.61;100487.34;1591030;88;20945;-70
2021/05/25 02:05:54;;;;;;;3.52;2.17;;;;;;;14.40;64.69;100486.28;1581503;89;21545;-69
2021/05/25 02:08:21;;;;;;;3.47;2.20;;;;;;;14.41;64.96;100485.22;1563555;89;21066;-69
2021/05/25 02:10:51;;;;;;;1.80;1.70;;;;;;;14.43;64.95;100480.38;1563082;91;21034;-69
2021/05/25 02:13:20;;;;;;;4.28;3.72;;;;;;;14.45;64.90;100478.75;1575588;91;21037;-69
2021/05/25 02:15:49;;;;;;;3.35;2.95;;;;;;;14.48;64.96;100480.44;1583523;89;21013;-68
2021/05/25 02:18:22;;;;;;;8.83;3.10;;;;;;;14.49;65.28;100480.69;1563166;91;21073;-69
2021/05/25 02:20:51;;;;;;;3.20;2.77;;;;;;;14.50;65.93;100483.69;1549206;91;21165;-68
2021/05/25 02:23:17;;;;;;;4.85;3.25;;;;;;;14.50;66.17;100481.51;1575578;91;21096;-67
2021/05/25 02:25:44;;;;;;;3.70;3.30;;;;;;;14.49;66.57;100488.81;1574420;89;21105;-70
2021/05/25 02:28:10;;;;;;;8.00;2.75;;;;;;;14.48;66.97;100492.62;1600009;89;21113;-68
2021/05/25 02:30:37;;;;;;;4.83;3.33;;;;;;;14.48;67.23;100489.09;1579619;89;20974;-70
2021/05/25 02:33:07;;;;;;;3.40;2.65;;;;;;;14.49;67.33;100483.39;1579358;89;21109;-69
2021/05/25 02:35:35;;;;;;;3.60;2.47;;;;;;;14.54;67.22;100483.98;1575533;90;21623;-68
2021/05/25 02:38:03;;;;;;;4.35;3.02;;;;;;;14.61;67.02;100492.19;1591253;88;20998;-68
2021/05/25 02:40:31;;;;;;;3.42;2.72;;;;;;;14.67;66.84;100487.11;1588478;89;21046;-68
2021/05/25 02:42:57;;;;;;;3.33;3.08;;;;;;;14.72;66.86;100485.77;1600082;89;21122;-67
2021/05/25 02:45:24;;;;;;;3.55;3.25;;;;;;;14.78;66.79;100496.12;1589001;89;21960;-67
2021/05/25 02:47:50;;;;;;;5.92;4.62;;;;;;;14.77;66.82;100496.66;1574098;91;21040;-69
2021/05/25 02:50:17;;;;;;;3.27;2.50;;;;;;;14.77;66.95;100502.06;1574014;89;21127;-68
2021/05/25 02:52:47;;;;;;;2.60;2.05;;;;;;;14.77;66.49;100499.92;1539560;91;21139;-69
2021/05/25 02:55:17;;;;;;;2.27;2.08;;;;;;;14.73;65.96;100500.95;1573814;91;21118;-69
2021/05/25 02:57:43;;;;;;;3.50;2.17;;;;;;;14.74;65.53;100499.88;1576969;89;21103;-68
2021/05/25 03:00:19;;;;;;;2.77;1.70;;;;;;;14.75;65.35;100496.11;1576543;90;21007;-68
2021/05/25 03:02:45;;;;;;;4.40;1.50;;;;;;;14.77;65.12;100495.86;1576976;90;21634;-70
2021/05/25 03:05:14;;;;;;;2.90;1.85;;;;;;;14.78;64.87;100498.30;1583024;89;21119;-68
2021/05/25 03:07:41;;;;;;;3.80;2.45;;;;;;;14.80;64.58;100496.16;1602973;89;21078;-71
2021/05/25 03:10:09;;;;;;;6.25;2.17;;;;;;;14.82;64.37;100497.23;1577661;88;21137;-69
2021/05/25 03:12:37;;;;;;;2.55;2.08;;;;;;;14.83;64.30;100498.88;1553639;91;21126;-70
2021/05/25 03:15:07;;;;;;;3.12;2.22;;;;;;;14.86;64.11;100505.68;1564309;90;21020;-69
2021/05/25 03:17:36;;;;;;;2.30;1.80;;;;;;;14.84;64.09;100505.92;1587635;90;21038;-69
2021/05/25 03:20:04;;;;;;;2.20;1.50;;;;;;;14.84;63.80;100512.70;1588454;88;21066;-69
2021/05/25 03:22:32;;;;;;;8.55;2.20;;;;;;;14.84;63.70;100512.16;1572856;91;21644;-69
2021/05/25 03:24:58;;;;;;;2.00;1.80;;;;;;;14.85;63.56;100511.63;1542772;90;21067;-69
2021/05/25 03:27:25;;;;;;;1.90;1.70;;;;;;;14.86;63.49;100505.68;1602941;88;21118;-69
2021/05/25 03:29:52;;;;;;;1.85;1.60;;;;;;;14.88;63.27;100511.11;1563733;90;21563;-69
2021/05/25 03:32:18;;;;;;;3.37;2.45;;;;;;;14.90;62.89;100513.56;1575852;89;21192;-70
2021/05/25 03:34:45;;;;;;;3.05;2.02;;;;;;;14.93;62.81;100513.86;1562810;91;21192;-69
2021/05/25 03:37:11;;;;;;;2.75;1.80;;;;;;;14.95;62.62;100512.26;1562526;91;21069;-69
2021/05/25 03:39:38;;;;;;;5.45;1.90;;;;;;;14.99;62.46;100517.43;1540499;91;21164;-67
2021/05/25 03:42:06;;;;;;;4.45;1.90;;;;;;;15.01;62.31;100522.86;1572127;90;21018;-71
2021/05/25 03:44:33;;;;;;;5.60;2.17;;;;;;;15.04;62.20;100521.53;1567027;90;21134;-69
2021/05/25 03:46:59;;;;;;;3.12;2.25;;;;;;;15.07;62.12;100524.54;1573471;91;21782;-69
2021/05/25 03:49:26;;;;;;;2.60;2.05;;;;;;;15.09;61.94;100527.00;1539521;91;21019;-69
2021/05/25 03:51:53;;;;;;;2.72;2.05;;;;;;;15.11;61.98;100533.78;1576033;89;21036;-69
2021/05/25 03:54:27;;;;;;;2.35;1.70;;;;;;;15.13;61.77;100535.70;1562609;91;21142;-71
2021/05/25 03:56:55;;;;;;;5.42;2.10;;;;;;;15.17;61.67;100531.93;1562751;91;21114;-70
2021/05/25 03:59:16;;;;;;;3.00;1.80;;;;;;;15.21;61.67;100533.04;1576408;90;21304;-70
2021/05/25 04:01:45;;;;;;;2.90;1.98;;;;;;;15.24;61.61;100532.01;1588446;89;21023;-70
2021/05/25 04:04:11;;;;;;;3.85;2.42;;;;;;;15.28;61.54;100530.94;1560627;91;21149;-71
2021/05/25 04:06:39;;;;;;;5.28;1.92;;;;;;;15.32;61.54;100525.80;1541801;91;21649;-70
2021/05/25 04:09:06;;;;;;;3.47;1.82;;;;;;;15.36;61.39;100526.38;1564070;91;22407;-70
2021/05/25 04:11:33;;;;;;;6.10;2.10;;;;;;;15.39;61.34;100524.52;1564180;90;21688;-69
2021/05/25 04:13:59;;;;;;;4.78;2.58;;;;;;;15.42;61.31;100515.86;1562449;91;21063;-69
2021/05/25 04:16:26;;;;;;;6.00;2.70;;;;;;;15.45;61.55;100515.32;1574050;89;20995;-69
2021/05/25 04:18:54;;;;;;;8.13;3.12;;;;;;;15.50;61.73;100515.35;1608964;89;21018;-67
2021/05/25 04:21:22;;;;;;;7.97;3.37;;;;;;;15.52;62.06;100508.36;1624157;87;20941;-69
2021/05/25 04:23:50;;;;;;;3.08;2.70;;;;;;;15.54;62.34;100512.99;1621574;87;21176;-68
2021/05/25 04:26:16;;;;;;;9.00;3.12;;;;;;;15.57;62.05;100514.63;1632504;87;21591;-68
2021/05/25 04:28:43;;;;;;;3.95;3.37;;;;;;;15.60;62.42;100515.98;1632413;87;21035;-70
2021/05/25 04:31:11;;;;;;;9.53;3.85;;;;;;;15.63;62.56;100516.84;1625178;87;21059;-69
2021/05/25 04:33:37;;;;;;;5.08;3.22;;;;;;;15.67;62.49;100513.33;1607880;89;21029;-69
2021/05/25 04:36:04;;;;;;;7.58;3.40;;;;;;;15.72;62.47;100516.61;1586040;89;21016;-69
2021/05/25 04:38:31;;;;;;;4.80;3.22;;;;;;;15.75;62.51;100513.90;1607868;89;21065;-70
2021/05/25 04:40:58;;;;;;;5.47;3.52;;;;;;;15.78;62.64;100511.47;1601274;89;21535;-69
2021/05/25 04:43:24;;;;;;;11.35;3.77;;;;;;;15.82;62.21;100512.59;1581302;89;21014;-68
2021/05/25 04:45:51;;;;;;;7.20;2.87;;;;;;;15.87;61.86;100511.80;1602999;89;21629;-67
2021/05/25 04:48:17;;;;;;;4.03;3.05;;;;;;;15.90;61.09;100509.91;1603089;89;21155;-68
2021/05/25 04:50:44;;;;;;;9.38;2.67;;;;;;;15.95;59.96;100507.22;1620510;87;21611;-68
2021/05/25 04:53:11;;;;;;;4.08;2.17;;;;;;;15.99;59.74;100512.38;1603085;89;21087;-69
2021/05/25 04:55:37;;;;;;;2.58;2.08;;;;;;;16.03;59.12;100510.23;1581289;89;21093;-68
2021/05/25 04:58:06;;;;;;;3.08;1.95;;;;;;;16.09;59.03;100507.00;1602982;89;21034;-68
2021/05/25 05:00:32;;;;;;;3.25;2.50;;;;;;;16.13;58.30;100503.48;1606834;87;21043;-68
2021/05/25 05:02:59;;;;;;;2.45;1.62;;;;;;;16.18;57.49;100511.36;1582014;89;21051;-68
2021/05/25 05:05:26;;;;;;;3.27;1.62;;;;;;;16.21;57.07;100508.13;1581408;89;21635;-69
2021/05/25 05:07:53;;;;;;;6.03;1.30;;;;;;;16.24;57.29;100499.45;1581237;89;21115;-70
2021/05/25 05:10:19;;;;;;;2.25;1.20;;;;;;;16.27;55.79;100498.36;1607574;87;21607;-70
2021/05/25 05:12:46;;;;;;;2.62;1.95;;;;;;;16.29;55.94;100495.39;1608795;87;21635;-69
2021/05/25 05:15:13;;;;;;;5.00;2.10;;;;;;;16.31;56.60;100496.73;1602859;89;21093;-68
2021/05/25 05:17:41;;;;;;;3.62;1.25;;;;;;;16.35;56.67;100489.72;1581307;89;21203;-69
2021/05/25 05:20:09;;;;;;;4.58;1.60;;;;;;;16.41;56.56;100491.33;1605998;87;21095;-68
2021/05/25 05:22:37;;;;;;;4.80;1.70;;;;;;;16.49;56.33;100498.97;1615901;87;21115;-70
2021/05/25 05:25:06;;;;;;;7.05;2.20;;;;;;;16.56;56.18;100490.01;1602852;89;21279;-69
2021/05/25 05:27:33;;;;;;;2.42;1.40;;;;;;;16.65;55.64;100492.21;1603023;89;21088;-70
2021/05/25 05:29:59;;;;;;;4.75;1.82;;;;;;;16.73;55.33;100487.08;1603220;87;21099;-71
2021/05/25 05:32:25;;;;;;;2.72;1.45;;;;;;;16.83;54.98;100491.16;1598898;89;21208;-68
2021/05/25 05:34:52;;;;;;;3.35;1.17;;;;;;;16.88;54.48;100492.50;1606472;89;21024;-68
2021/05/25 05:37:18;;;;;;;7.95;1.98;;;;;;;16.94;54.46;100491.95;1584859;89;21095;-68
2021/05/25 05:39:44;;;;;;;3.27;1.00;;;;;;;16.99;53.38;100483.27;1576564;91;21206;-68
2021/05/25 05:42:11;;;;;;;3.72;1.00;;;;;;;17.05;52.29;100485.98;1571061;89;21091;-68
2021/05/25 05:44:37;;;;;;;5.22;1.45;;;;;;;17.09;51.95;100488.42;1576541;90;21012;-69
2021/05/25 05:47:04;;;;;;;1.35;1.25;;;;;;;17.13;52.06;100490.31;1590071;89;21023;-70
2021/05/25 05:49:30;;;;;;;1.27;1.17;;;;;;;17.17;52.38;100485.95;1592961;89;21399;-67
2021/05/25 05:51:57;;;;;;;3.65;1.27;;;;;;;17.23;52.67;100495.74;1609201;88;20953;-71
2021/05/25 05:54:23;;;;;;;2.22;1.45;;;;;;;17.30;52.72;100495.47;1605413;88;20983;-68
2021/05/25 05:56:50;;;;;;;2.35;1.50;;;;;;;17.35;52.29;100501.72;1581673;89;21116;-68
2021/05/25 05:59:16;;;;;;;1.42;0.98;;;;;;;17.39;52.51;100500.08;1603190;88;20984;-67
2021/05/25 06:01:43;;;;;;;4.42;1.35;;;;;;;17.46;52.93;100497.05;1604814;89;21205;-68
2021/05/25 06:04:09;;;;;;;4.78;1.25;;;;;;;17.47;53.17;100490.53;1603920;89;21626;-68
2021/05/25 06:06:36;;;;;;;1.20;1.10;;;;;;;17.53;53.20;100494.06;1603176;89;21173;-69
2021/05/25 06:09:04;;;;;;;1.87;1.42;;;;;;;17.57;52.59;100497.31;1606623;87;21011;-68
2021/05/25 06:11:30;;;;;;;1.30;1.20;;;;;;;17.60;52.57;100496.78;1607070;89;21620;-68
2021/05/25 06:13:57;;;;;;;1.20;1.10;;;;;;;17.62;52.68;100482.91;1585472;89;21790;-69
2021/05/25 06:16:24;;;;;;;2.35;1.35;;;;;;;17.69;53.15;100486.16;1603331;89;21604;-69
2021/05/25 06:18:51;;;;;;;1.30;1.20;;;;;;;17.76;52.99;100483.41;1591076;87;21098;-69
2021/05/25 06:21:17;;;;;;;1.35;1.25;;;;;;;17.82;52.66;100480.13;1632418;87;21005;-69
2021/05/25 06:23:45;;;;;;;3.75;1.50;;;;;;;17.89;52.72;100485.28;1632674;87;21019;-69
2021/05/25 06:26:12;;;;;;;7.25;1.27;;;;;;;17.94;52.47;100473.80;1617188;87;21223;-67
2021/05/25 06:28:38;;;;;;;6.67;1.60;;;;;;;17.98;52.66;100474.08;1586506;89;21204;-69
2021/05/25 06:31:04;;;;;;;5.28;1.52;;;;;;;18.01;52.51;100472.14;1605914;88;21059;-68
2021/05/25 06:33:31;;;;;;;5.03;1.87;;;;;;;18.04;53.15;100471.57;1581516;89;21116;-67
2021/05/25 06:35:58;;;;;;;6.60;1.85;;;;;;;18.07;53.44;100471.84;1605148;88;20989;-70
2021/05/25 06:38:25;;;;;;;6.03;2.00;;;;;;;18.13;53.56;100457.67;1608203;87;21047;-69
2021/05/25 06:40:52;;;;;;;3.35;2.00;;;;;;;18.20;53.61;100459.52;1614548;87;21114;-68
2021/05/25 06:43:19;;;;;;;6.05;2.05;;;;;;;18.25;53.83;100455.41;1631096;87;21631;-69
2021/05/25 06:45:46;;;;;;;7.87;4.00;;;;;;;18.28;53.32;100448.84;1584328;89;21019;-68
2021/05/25 06:48:12;;;;;;;3.15;1.55;;;;;;;18.34;53.40;100458.34;1603090;89;21055;-69
2021/05/25 06:50:38;;;;;;;5.45;1.80;;;;;;;18.38;52.97;100454.77;1631786;87;21174;-68
2021/05/25 06:53:05;;;;;;;6.60;1.47;;;;;;;18.42;52.82;100444.92;1632387;87;21634;-69
2021/05/25 06:55:34;;;;;;;2.17;1.27;;;;;;;18.48;52.84;100449.25;1624232;87;21044;-69
2021/05/25 06:58:00;;;;;;;5.45;1.92;;;;;;;18.49;53.09;100445.44;1603156;88;21631;-69
2021/05/25 07:00:26;;;;;;;2.40;1.52;;;;;;;18.49;53.46;100439.98;1628479;87;21324;-68
2021/05/25 07:02:53;;;;;;;2.87;1.25;;;;;;;18.52;53.74;100438.59;1611875;87;21047;-72
2021/05/25 07:05:21;;;;;;;5.85;2.00;;;;;;;18.56;54.03;100434.27;1627894;87;21600;-68
2021/05/25 07:07:48;;;;;;;3.12;2.12;;;;;;;18.62;54.07;100438.00;1603076;88;21034;-68
2021/05/25 07:10:16;;;;;;;7.37;3.05;;;;;;;18.69;53.59;100439.05;1604685;87;21565;-69
2021/05/25 07:12:42;;;;;;;5.20;2.10;;;;;;;18.75;53.18;100437.92;1632497;87;21106;-68
2021/05/25 07:15:11;;;;;;;2.90;1.62;;;;;;;18.79;52.65;100436.80;1614406;87;21641;-68
2021/05/25 07:17:39;;;;;;;2.92;1.20;;;;;;;18.80;52.98;100444.66;1603064;88;21035;-67
2021/05/25 07:20:07;;;;;;;4.00;1.65;;;;;;;18.83;53.08;100441.93;1623167;87;21615;-68
2021/05/25 07:22:35;;;;;;;5.37;2.02;;;;;;;18.88;52.68;100439.16;1631692;87;21626;-69
2021/05/25 07:25:01;;;;;;;2.72;1.52;;;;;;;18.92;52.02;100434.21;1628653;87;20991;-69
2021/05/25 07:27:28;;;;;;;4.33;1.27;;;;;;;18.98;50.81;100435.80;1607697;88;21140;-69
2021/05/25 07:29:54;;;;;;;1.67;1.10;;;;;;;18.98;50.61;100439.07;1585811;89;21071;-69
2021/05/25 07:32:21;;;;;;;1.82;1.67;;;;;;;18.97;50.59;100445.62;1606729;89;21058;-70
2021/05/25 07:34:48;;;;;;;3.42;2.08;;;;;;;18.95;51.53;100443.72;1584620;88;21639;-69
2021/05/25 07:37:14;;;;;;;6.62;1.65;;;;;;;19.00;52.07;100440.39;1600705;88;20991;-69
2021/05/25 07:39:40;;;;;;;1.90;1.47;;;;;;;19.07;52.04;100438.70;1615023;88;21082;-68
2021/05/25 07:42:08;;;;;;;2.85;1.32;;;;;;;19.12;52.21;100444.94;1631486;88;21039;-69
2021/05/25 07:44:35;;;;;;;3.83;1.85;;;;;;;19.15;52.28;100445.70;1612471;86;21106;-68
2021/05/25 07:47:02;;;;;;;8.60;1.65;;;;;;;19.18;51.82;100448.42;1600509;89;21084;-68
2021/05/25 07:49:28;;;;;;;2.40;1.60;;;;;;;19.22;51.18;100446.74;1579156;89;21045;-69
2021/05/25 07:51:56;;;;;;;2.72;1.80;;;;;;;19.26;51.03;100449.16;1602676;89;21101;-70
2021/05/25 07:54:23;;;;;;;2.90;1.40;;;;;;;19.32;51.25;100448.55;1580060;90;20987;-68
2021/05/25 07:56:50;;;;;;;2.52;1.45;;;;;;;19.37;50.83;100455.32;1544429;91;21123;-69
2021/05/25 07:59:16;;;;;;;2.45;1.52;;;;;;;19.43;51.31;100451.41;1560381;90;21100;-68
2021/05/25 08:01:43;;;;;;;2.55;0.90;;;;;;;19.49;51.66;100447.02;1535013;92;21047;-69
2021/05/25 08:04:09;;;;;;;3.00;1.35;;;;;;;19.57;51.25;100443.64;1557871;90;21163;-71
2021/05/25 08:06:36;;;;;;;3.50;1.52;;;;;;;19.64;50.43;100446.58;1559980;92;21067;-69
2021/05/25 08:09:04;;;;;;;3.25;1.27;;;;;;;19.61;50.44;100449.35;1539113;90;21063;-69
2021/05/25 08:11:31;;;;;;;3.25;1.50;;;;;;;19.63;50.27;100453.95;1587815;90;21014;-68
2021/05/25 08:13:58;;;;;;;3.98;1.22;;;;;;;19.65;50.12;100446.84;1592420;89;21115;-70
2021/05/25 08:16:29;;;;;;;2.17;0.98;;;;;;;19.69;50.46;100439.69;1539576;91;21334;-71
2021/05/25 08:21:21;;;;;;;2.25;1.87;;;;;;;19.69;50.06;100433.69;1581558;90;21173;-68
2021/05/25 08:23:48;;;;;;;7.92;2.20;;;;;;;19.70;50.21;100442.14;1572666;90;21183;-70
2021/05/25 08:26:14;;;;;;;4.33;1.77;;;;;;;19.73;49.97;100434.72;1539613;91;21687;-69
2021/05/25 08:28:41;;;;;;;4.85;1.77;;;;;;;19.73;49.68;100422.44;1591588;89;21015;-68
2021/05/25 08:31:07;;;;;;;3.62;1.32;;;;;;;19.78;49.87;100418.83;1564325;90;21275;-69
2021/05/25 08:33:34;;;;;;;1.37;1.10;;;;;;;19.84;49.86;100405.38;1550113;91;20995;-68
2021/05/25 08:36:00;;;;;;;1.00;0.90;;;;;;;19.94;48.96;100399.23;1539189;91;21131;-68
2021/05/25 08:38:27;;;;;;;4.10;1.45;;;;;;;19.97;47.71;100393.72;1587694;89;21130;-67
2021/05/25 08:40:54;;;;;;;2.27;1.42;;;;;;;20.01;48.40;100396.11;1589298;90;21031;-69
2021/05/25 08:43:22;;;;;;;1.60;1.50;;;;;;;20.08;47.98;100403.40;1574115;89;21090;-67
2021/05/25 08:45:49;;;;;;;1.60;0.82;;;;;;;20.15;47.52;100409.84;1552551;91;21131;-69
2021/05/25 08:48:15;;;;;;;3.65;1.15;;;;;;;20.15;46.71;100412.02;1573479;90;21066;-67
2021/05/25 08:50:42;;;;;;;5.55;1.20;;;;;;;20.14;45.59;100408.24;1567465;90;21054;-68
2021/05/25 08:53:08;;;;;;;1.20;1.10;;;;;;;20.15;45.03;100399.73;1601650;89;21195;-67
2021/05/25 08:55:35;;;;;;;4.55;1.10;;;;;;;20.12;45.66;100403.06;1576631;89;20977;-68
2021/05/25 08:58:04;;;;;;;2.08;1.00;;;;;;;20.07;46.83;100403.13;1578279;90;21033;-68
2021/05/25 09:00:30;;;;;;;4.83;1.20;;;;;;;20.13;47.50;100404.70;1572508;91;21691;-67
2021/05/25 09:02:57;;;;;;;3.37;1.45;;;;;;;20.22;47.18;100394.72;1561694;91;21111;-68
2021/05/25 09:05:24;;;;;;;3.98;1.10;;;;;;;20.30;46.87;100391.86;1552584;91;21743;-67
2021/05/25 09:07:54;;;;;;;6.55;1.70;;;;;;;20.35;45.05;100393.17;1579613;89;21043;-68
2021/05/25 09:10:25;;;;;;;3.60;0.90;;;;;;;20.36;44.81;100392.89;1575340;90;21055;-67
2021/05/25 09:12:53;;;;;;;1.15;1.02;;;;;;;20.37;43.44;100391.79;1572488;91;21055;-68
2021/05/25 09:15:43;;;;;;;4.03;1.22;;;;;;;20.42;43.67;100379.41;1573344;91;21631;-68
2021/05/25 09:18:19;;;;;;;1.75;1.10;;;;;;;20.53;44.47;100375.93;1562728;91;21199;-69
2021/05/25 09:20:55;;;;;;;1.82;1.20;;;;;;;20.64;44.29;100376.58;1601170;89;20995;-68
2021/05/25 09:23:34;;;;;;;1.25;0.82;;;;;;;20.71;43.56;100368.81;1603003;88;21020;-69
2021/05/25 09:26:09;;;;;;;3.22;1.60;;;;;;;20.79;41.17;100373.58;1601647;89;21136;-68
2021/05/25 09:29:04;;;;;;;1.27;1.00;;;;;;;20.80;42.60;100384.78;1591923;88;21012;-68
2021/05/25 09:31:46;;;;;;;2.85;1.22;;;;;;;20.83;43.41;100389.64;1597255;88;21069;-69
2021/05/25 09:34:20;;;;;;;1.75;1.10;;;;;;;20.83;43.86;100386.35;1577966;89;21015;-68
2021/05/25 09:37:04;;;;;;;2.72;1.10;;;;;;;20.92;43.12;100393.84;1576473;89;21656;-70
2021/05/25 09:39:48;;;;;;;1.90;1.22;;;;;;;20.95;43.26;100384.51;1577243;89;21117;-67
2021/05/25 09:42:16;;;;;;;0.70;0.70;;;;;;;21.01;43.87;100385.20;1576785;89;21100;-68
2021/05/25 09:45:09;;;;;;;1.55;0.90;;;;;;;21.09;43.75;100383.16;1564038;89;21224;-68
2021/05/25 09:47:40;;;;;;;1.47;1.05;;;;;;;21.06;41.69;100398.78;1563791;91;21083;-69
2021/05/25 09:50:11;;;;;;;1.15;0.93;;;;;;;21.00;41.47;100380.87;1555196;89;21188;-73
2021/05/25 09:53:11;;;;;;;1.10;0.90;;;;;;;20.97;40.91;100381.45;1574458;89;21019;-69
2021/05/25 09:55:57;;;;;;;1.72;1.17;;;;;;;21.08;41.12;100367.85;1579808;89;21110;-78
2021/05/25 09:58:27;;;;;;;2.02;1.07;;;;;;;21.08;41.12;100367.85;1579225;89;21163;-85
2021/05/25 10:00:53;;;;;;;4.78;1.22;;;;;;;21.14;42.63;100371.59;1556841;90;21389;-69
2021/05/25 10:03:22;;;;;;;3.85;1.05;;;;;;;21.24;43.90;100371.95;1572303;91;20989;-72
2021/05/25 10:05:51;;;;;;;4.00;1.50;;;;;;;21.35;44.82;100370.61;1587641;90;21001;-74
2021/05/25 10:08:20;;;;;;;1.42;1.07;;;;;;;21.35;44.82;100370.61;1541481;90;21097;-70
2021/05/25 10:10:54;;;;;;;2.72;1.52;;;;;;;21.39;43.58;100349.73;1577503;91;21010;-68
2021/05/25 10:13:21;;;;;;;3.95;1.07;;;;;;;21.48;44.02;100358.05;1564967;91;21647;-68
2021/05/25 10:15:49;;;;;;;2.33;1.22;;;;;;;21.50;44.44;100359.36;1540664;91;21158;-68
2021/05/25 10:21:00;;;;;;;3.75;1.22;;;;;;;21.62;44.08;100353.38;1562634;91;21053;-71
2021/05/25 10:23:32;;;;;;;1.45;1.32;;;;;;;21.66;44.95;100353.81;1563833;91;22346;-68
2021/05/25 10:25:57;;;;;;;1.80;1.52;;;;;;;21.79;45.21;100354.08;1563670;91;21085;-73
2021/05/25 10:28:24;;;;;;;2.45;1.00;;;;;;;21.88;44.51;100346.75;1541608;90;21078;-70
2021/05/25 10:30:51;;;;;;;1.10;1.00;;;;;;;21.92;43.73;100343.67;1571008;90;21139;-69
2021/05/25 10:33:22;;;;;;;2.10;1.25;;;;;;;21.97;43.74;100344.92;1563288;91;21666;-69
2021/05/25 10:36:03;;;;;;;2.35;1.72;;;;;;;22.01;44.20;100342.66;1563541;91;21206;-69
2021/05/25 10:38:34;;;;;;;2.10;0.90;;;;;;;22.13;43.63;100344.27;1565078;90;21073;-67
2021/05/25 10:41:05;;;;;;;5.08;0.90;;;;;;;22.17;43.95;100335.67;1584484;90;21060;-72
2021/05/25 10:43:42;;;;;;;1.27;1.10;;;;;;;22.28;43.99;100328.02;1590229;89;21232;-70
2021/05/25 10:46:20;;;;;;;4.60;2.17;;;;;;;22.30;44.25;100314.02;1575946;90;21007;-68
2021/05/25 10:49:10;;;;;;;7.20;1.27;;;;;;;22.39;44.66;100313.51;1562951;91;21072;-73
2021/05/25 10:51:54;;;;;;;2.67;1.32;;;;;;;22.58;43.91;100312.17;1553819;91;21087;-78
2021/05/25 10:54:34;;;;;;;1.12;1.02;;;;;;;22.75;42.87;100320.25;1563609;90;21055;-70
2021/05/25 10:57:33;;;;;;;0.95;0.85;;;;;;;22.72;41.07;100325.02;1536585;92;21693;-68
2021/05/25 11:00:15;;;;;;;1.57;0.90;;;;;;;22.57;42.30;100316.03;1559224;92;21022;-67
2021/05/25 11:02:51;;;;;;;2.25;1.27;;;;;;;22.61;42.86;100314.84;1560968;92;21290;-77
2021/05/25 11:05:37;;;;;;;1.90;1.00;;;;;;;22.47;42.93;100298.47;1534384;92;21015;-75
2021/05/25 11:08:23;;;;;;;4.35;1.52;;;;;;;22.50;43.50;100301.13;1557846;92;21523;-75
2021/05/25 11:10:50;;;;;;;3.10;1.00;;;;;;;22.58;44.18;100305.32;1558722;90;21191;-73
2021/05/25 11:13:28;;;;;;;1.17;0.90;;;;;;;22.69;41.73;100310.51;1534179;92;21416;-71
2021/05/25 11:16:36;;;;;;;1.52;0.98;;;;;;;22.80;41.31;100303.66;1558760;92;21633;-73
2021/05/25 11:19:11;;;;;;;1.40;1.02;;;;;;;22.86;41.40;100303.78;1560371;91;21677;-73
2021/05/25 11:24:52;;;;;;;0.90;0.90;;;;;;;22.96;42.02;100295.27;1559069;92;21146;-75
2021/05/25 11:27:47;;;;;;;1.17;1.10;;;;;;;22.90;42.92;100292.41;1534808;92;21634;-74
2021/05/25 11:30:27;;;;;;;1.22;0.98;;;;;;;22.87;43.12;100295.80;1560160;92;21227;-76
2021/05/25 11:32:55;;;;;;;0.90;0.90;;;;;;;22.98;43.36;100295.74;1559013;91;21144;-74
2021/05/25 11:35:24;;;;;;;3.37;0.72;;;;;;;22.93;42.27;100293.95;1559433;91;21093;-76
2021/05/25 11:37:56;;;;;;;2.22;1.30;;;;;;;22.93;42.48;100287.66;1558823;91;21066;-74
2021/05/25 11:40:25;;;;;;;2.77;1.20;;;;;;;23.02;43.46;100285.77;1559801;90;21673;-75
2021/05/25 11:42:52;;;;;;;3.17;1.52;;;;;;;23.22;43.18;100282.98;1536632;93;21108;-76